| time (UTC) | temp C | wind direction | speed KPH | gust KPH | rain 1hr cm | rain 24hr cm | rain mn cm | humidity % | barometer mb |
| 20260906195459 | 26 | 106 | 3.2 | 14.5 | 0.00 | 0.43 | 0.43 | 72 | 1015.3 |
| 20260906195000 | 26 | 90 | 3.2 | 11.3 | 0.00 | 0.43 | 0.43 | 76 | 1015.3 |
| 20260906193459 | 26 | 111 | 3.2 | 9.7 | 0.00 | 0.43 | 0.43 | 75 | 1015.6 |
| 20260906192959 | 26 | 95 | 3.2 | 11.3 | 0.00 | 0.43 | 0.43 | 75 | 1015.7 |
| 20260906192500 | 25 | 77 | 3.2 | 12.9 | 0.00 | 0.43 | 0.43 | 77 | 1015.7 |
| 20260906191959 | 25 | 70 | 3.2 | 12.9 | 0.00 | 0.43 | 0.43 | 76 | 1015.9 |
| 20260906191500 | 25 | 73 | 3.2 | 11.3 | 0.00 | 0.43 | 0.43 | 77 | 1015.9 |
| 20260906191000 | 25 | 75 | 4.8 | 14.5 | 0.00 | 0.43 | 0.43 | 80 | 1016.0 |
| 20260906190500 | 24 | 71 | 4.8 | 14.5 | 0.00 | 0.43 | 0.43 | 82 | 1016.2 |
| 20260906185459 | 23 | 72 | 3.2 | 12.9 | 0.00 | 0.43 | 0.43 | 96 | 1016.5 |
| 20260906185000 | 22 | 74 | 4.8 | 12.9 | 0.00 | 0.43 | 0.43 | 97 | 1016.5 |
| 20260906184500 | 22 | 72 | 3.2 | 16.1 | 0.00 | 0.43 | 0.43 | 97 | 1016.5 |
| 20260906183500 | 22 | 70 | 1.6 | 9.7 | 0.00 | 0.43 | 0.43 | 97 | 1016.6 |
| 20260906183000 | 22 | 63 | 1.6 | 9.7 | 0.00 | 0.43 | 0.43 | 97 | 1016.7 |
| 20260906182500 | 21 | 61 | 0.0 | 8.0 | 0.00 | 0.43 | 0.43 | 97 | 1016.9 |
| 20260906181500 | 21 | 59 | 0.0 | 9.7 | 0.00 | 0.43 | 0.43 | 98 | 1017.0 |
| 20260906181000 | 21 | 66 | 0.0 | 9.7 | 0.00 | 0.43 | 0.43 | 98 | 1017.0 |
| 20260906180500 | 21 | 326 | 0.0 | 6.4 | 0.00 | 0.43 | 0.43 | 98 | 1017.0 |
| 20260906175959 | 21 | 331 | 0.0 | 6.4 | 0.00 | 0.43 | 0.43 | 98 | 1016.9 |
| 20260906175500 | 22 | 314 | 0.0 | 4.8 | 0.00 | 0.43 | 0.43 | 98 | 1016.9 |
| 20260906174959 | 21 | 309 | 0.0 | 4.8 | 0.00 | 0.43 | 0.43 | 98 | 1016.9 |
| 20260906174500 | 21 | 327 | 0.0 | 9.7 | 0.00 | 0.43 | 0.43 | 98 | 1016.7 |
| 20260906174000 | 21 | 327 | 1.6 | 9.7 | 0.00 | 0.43 | 0.43 | 98 | 1016.8 |
| 20260906172959 | 21 | 324 | 1.6 | 9.7 | 0.00 | 0.43 | 0.43 | 98 | 1017.1 |
| 20260906172500 | 20 | 323 | 1.6 | 9.7 | 0.00 | 0.43 | 0.43 | 98 | 1017.1 |
| 20260906172000 | 20 | 319 | 1.6 | 9.7 | 0.00 | 0.43 | 0.43 | 98 | 1017.3 |
| 20260906171459 | 20 | 316 | 0.0 | 9.7 | 0.00 | 0.43 | 0.43 | 98 | 1017.3 |
| 20260906171000 | 20 | 311 | 0.0 | 6.4 | 0.00 | 0.43 | 0.43 | 98 | 1017.4 |
| 20260906170459 | 20 | 310 | 0.0 | 6.4 | 0.00 | 0.43 | 0.43 | 98 | 1017.4 |
| 20260906170000 | 21 | 308 | 0.0 | 1.6 | 0.00 | 0.43 | 0.43 | 98 | 1017.5 |
| 20260906165459 | 21 | 310 | 0.0 | 3.2 | 0.00 | 0.43 | 0.43 | 98 | 1017.4 |
| 20260906165000 | 21 | 310 | 0.0 | 3.2 | 0.00 | 0.43 | 0.43 | 98 | 1017.3 |
| 20260906164500 | 21 | 0 | 0.0 | 0.0 | 0.00 | 0.43 | 0.43 | 98 | 1017.4 |
| 20260906164000 | 21 | 0 | 0.0 | 0.0 | 0.00 | 0.43 | 0.43 | 98 | 1017.5 |
| 20260906163500 | 21 | 0 | 0.0 | 0.0 | 0.00 | 0.43 | 0.43 | 98 | 1017.5 |
| 20260906162959 | 21 | 0 | 0.0 | 0.0 | 0.00 | 0.43 | 0.43 | 98 | 1017.5 |
| 20260906162459 | 21 | 0 | 0.0 | 0.0 | 0.00 | 0.43 | 0.43 | 98 | 1017.2 |
| 20260906162000 | 21 | 0 | 0.0 | 0.0 | 0.00 | 0.43 | 0.43 | 98 | 1016.7 |
| 20260906161500 | 21 | 0 | 0.0 | 0.0 | 0.00 | 0.43 | 0.43 | 98 | 1016.6 |
| 20260906160500 | 21 | 0 | 0.0 | 0.0 | 0.03 | 0.43 | 0.43 | 98 | 1016.0 |
| 20260906160000 | 21 | 0 | 0.0 | 0.0 | 0.08 | 0.43 | 0.43 | 98 | 1015.8 |
| 20260906155500 | 21 | 0 | 0.0 | 0.0 | 0.15 | 0.43 | 0.43 | 98 | 1015.7 |
| 20260906155000 | 21 | 0 | 0.0 | 0.0 | 0.25 | 0.43 | 0.43 | 98 | 1015.8 |
| 20260906154459 | 21 | 0 | 0.0 | 0.0 | 0.28 | 0.43 | 0.43 | 98 | 1015.9 |
| 20260906153959 | 21 | 0 | 0.0 | 0.0 | 0.30 | 0.43 | 0.43 | 98 | 1015.9 |
| 20260906153500 | 21 | 0 | 0.0 | 0.0 | 0.36 | 0.43 | 0.43 | 98 | 1016.0 |
| 20260906152959 | 21 | 0 | 0.0 | 0.0 | 0.41 | 0.43 | 0.43 | 98 | 1015.9 |
| 20260906152500 | 21 | 0 | 0.0 | 0.0 | 0.41 | 0.43 | 0.43 | 98 | 1016.2 |
| 20260906151459 | 21 | 0 | 0.0 | 0.0 | 0.41 | 0.43 | 0.43 | 98 | 1016.2 |
| 20260906150959 | 21 | 0 | 0.0 | 0.0 | 0.41 | 0.43 | 0.43 | 98 | 1016.1 |
| 20260906145459 | 21 | 94 | 0.0 | 3.2 | 0.25 | 0.28 | 0.28 | 98 | 1017.4 |
| 20260906145000 | 21 | 94 | 0.0 | 3.2 | 0.15 | 0.18 | 0.18 | 98 | 1017.6 |
| 20260906144459 | 21 | 0 | 0.0 | 0.0 | 0.13 | 0.15 | 0.15 | 98 | 1017.8 |
| 20260906144000 | 21 | 0 | 0.0 | 0.0 | 0.10 | 0.13 | 0.13 | 98 | 1017.5 |
| 20260906142000 | 21 | 197 | 1.6 | 14.5 | 0.03 | 0.03 | 0.03 | 98 | 1017.4 |
| 20260906141500 | 21 | 0 | 0.0 | 0.0 | 0.03 | 0.03 | 0.03 | 98 | 1016.4 |
| 20260906141000 | 21 | 304 | 0.0 | 4.8 | 0.03 | 0.03 | 0.03 | 98 | 1016.4 |
| 20260906140500 | 21 | 304 | 0.0 | 4.8 | 0.03 | 0.03 | 0.03 | 98 | 1016.3 |
| 20260906140000 | 21 | 0 | 0.0 | 0.0 | 0.03 | 0.03 | 0.03 | 98 | 1016.3 |
| 20260906135500 | 21 | 0 | 0.0 | 0.0 | 0.03 | 0.03 | 0.03 | 98 | 1016.4 |
| 20260906134500 | 21 | 289 | 0.0 | 1.6 | 0.03 | 0.03 | 0.03 | 98 | 1016.5 |
| 20260906133959 | 21 | 227 | 0.0 | 8.0 | 0.03 | 0.03 | 0.03 | 98 | 1016.9 |
| 20260906133500 | 22 | 201 | 1.6 | 9.7 | 0.03 | 0.03 | 0.03 | 98 | 1016.9 |
| 20260906132959 | 22 | 195 | 1.6 | 9.7 | 0.03 | 0.03 | 0.03 | 98 | 1017.2 |
| 20260906132459 | 22 | 191 | 0.0 | 4.8 | 0.00 | 0.00 | 0.00 | 98 | 1016.3 |
| 20260906131959 | 22 | 0 | 0.0 | 0.0 | 0.00 | 0.00 | 0.00 | 98 | 1016.0 |
| 20260906130959 | 22 | 0 | 0.0 | 0.0 | 0.00 | 0.00 | 0.00 | 98 | 1016.0 |
| 20260906130500 | 22 | 0 | 0.0 | 0.0 | 0.00 | 0.00 | 0.00 | 98 | 1016.0 |
| 20260906125959 | 22 | 0 | 0.0 | 0.0 | 0.00 | 0.00 | 0.00 | 98 | 1015.8 |
| 20260906125459 | 22 | 0 | 0.0 | 0.0 | 0.00 | 0.00 | 0.00 | 97 | 1015.9 |
| 20260906125000 | 22 | 0 | 0.0 | 0.0 | 0.00 | 0.00 | 0.00 | 97 | 1015.9 |
| 20260906124500 | 22 | 0 | 0.0 | 0.0 | 0.00 | 0.00 | 0.00 | 97 | 1016.0 |
| 20260906123959 | 22 | 0 | 0.0 | 0.0 | 0.00 | 0.00 | 0.00 | 97 | 1016.0 |
| 20260906123459 | 22 | 0 | 0.0 | 0.0 | 0.00 | 0.00 | 0.00 | 97 | 1015.9 |
| 20260906122959 | 22 | 295 | 0.0 | 3.2 | 0.00 | 0.00 | 0.00 | 97 | 1016.0 |
| 20260906122459 | 22 | 281 | 0.0 | 6.4 | 0.00 | 0.00 | 0.00 | 97 | 1015.9 |
| 20260906121959 | 22 | 264 | 0.0 | 6.4 | 0.00 | 0.00 | 0.00 | 97 | 1015.8 |
| 20260906120959 | 22 | 237 | 0.0 | 3.2 | 0.00 | 0.00 | 0.00 | 96 | 1015.6 |
| 20260906120459 | 23 | 216 | 0.0 | 8.0 | 0.00 | 0.00 | 0.00 | 94 | 1015.9 |
| 20260906115959 | 23 | 202 | 0.0 | 8.0 | 0.00 | 0.00 | 0.00 | 90 | 1015.7 |
| 20260906115459 | 23 | 0 | 0.0 | 0.0 | 0.00 | 0.00 | 0.00 | 91 | 1015.5 |
| 20260906114959 | 23 | 0 | 0.0 | 0.0 | 0.00 | 0.00 | 0.00 | 92 | 1015.5 |
| 20260906114459 | 23 | 0 | 0.0 | 0.0 | 0.00 | 0.00 | 0.00 | 92 | 1015.5 |
| 20260906113959 | 23 | 0 | 0.0 | 0.0 | 0.00 | 0.00 | 0.00 | 92 | 1015.4 |
| 20260906112959 | 23 | 273 | 1.6 | 6.4 | 0.00 | 0.00 | 0.00 | 91 | 1015.4 |
| 20260906112458 | 23 | 156 | 0.0 | 6.4 | 0.00 | 0.00 | 0.00 | 90 | 1014.8 |
| 20260906111959 | 23 | 0 | 0.0 | 0.0 | 0.00 | 0.00 | 0.00 | 90 | 1014.5 |
| 20260906111459 | 23 | 118 | 0.0 | 3.2 | 0.00 | 0.00 | 0.00 | 91 | 1014.3 |
| 20260906110959 | 23 | 119 | 0.0 | 3.2 | 0.00 | 0.00 | 0.00 | 91 | 1014.2 |
| 20260906110459 | 23 | 128 | 0.0 | 3.2 | 0.00 | 0.00 | 0.00 | 91 | 1014.2 |
| 20260906105959 | 23 | 130 | 0.0 | 3.2 | 0.00 | 0.00 | 0.00 | 91 | 1014.3 |
| 20260906105459 | 23 | 126 | 0.0 | 3.2 | 0.00 | 0.00 | 0.00 | 92 | 1014.3 |
| 20260906104959 | 23 | 126 | 0.0 | 3.2 | 0.00 | 0.00 | 0.00 | 92 | 1014.2 |
| 20260906104459 | 23 | 0 | 0.0 | 0.0 | 0.00 | 0.00 | 0.00 | 92 | 1014.1 |
| 20260906103959 | 23 | 68 | 0.0 | 1.6 | 0.00 | 0.00 | 0.00 | 92 | 1014.1 |
| 20260906103459 | 23 | 77 | 0.0 | 3.2 | 0.00 | 0.00 | 0.00 | 92 | 1014.1 |
| 20260906102959 | 23 | 71 | 0.0 | 3.2 | 0.00 | 0.00 | 0.00 | 92 | 1014.1 |
| 20260906102459 | 23 | 67 | 0.0 | 3.2 | 0.00 | 0.00 | 0.00 | 92 | 1014.1 |
| 20260906101959 | 23 | 83 | 0.0 | 3.2 | 0.00 | 0.00 | 0.00 | 92 | 1014.2 |
| 20260906101459 | 23 | 89 | 0.0 | 3.2 | 0.00 | 0.00 | 0.00 | 92 | 1014.2 |
| 20260906101000 | 23 | 114 | 0.0 | 1.6 | 0.00 | 0.00 | 0.00 | 92 | 1014.3 |
| 20260906095959 | 23 | 106 | 0.0 | 3.2 | 0.00 | 0.00 | 0.00 | 92 | 1014.4 |
| 20260906095459 | 23 | 106 | 0.0 | 3.2 | 0.00 | 0.00 | 0.00 | 92 | 1014.4 |
| 20260906094959 | 23 | 106 | 0.0 | 3.2 | 0.00 | 0.00 | 0.00 | 93 | 1014.4 |
| 20260906094459 | 23 | 0 | 0.0 | 0.0 | 0.00 | 0.00 | 0.00 | 93 | 1014.4 |
| 20260906093959 | 23 | 0 | 0.0 | 0.0 | 0.00 | 0.00 | 0.00 | 92 | 1014.3 |
| 20260906093458 | 23 | 0 | 0.0 | 0.0 | 0.00 | 0.00 | 0.00 | 92 | 1014.1 |
| 20260906092959 | 24 | 0 | 0.0 | 0.0 | 0.00 | 0.00 | 0.00 | 92 | 1014.1 |
| 20260906092459 | 24 | 0 | 0.0 | 0.0 | 0.00 | 0.00 | 0.00 | 92 | 1014.1 |
| 20260906091959 | 24 | 116 | 0.0 | 3.2 | 0.00 | 0.00 | 0.00 | 92 | 1014.1 |
| 20260906091459 | 24 | 119 | 0.0 | 3.2 | 0.00 | 0.00 | 0.00 | 92 | 1014.1 |
| 20260906090458 | 24 | 121 | 0.0 | 4.8 | 0.00 | 0.00 | 0.00 | 92 | 1014.1 |
| 20260906085959 | 24 | 0 | 0.0 | 0.0 | 0.00 | 0.00 | 0.00 | 92 | 1014.2 |
| 20260906085459 | 24 | 0 | 0.0 | 0.0 | 0.00 | 0.00 | 0.00 | 92 | 1014.1 |
| 20260906084459 | 24 | 109 | 0.0 | 3.2 | 0.00 | 0.00 | 0.00 | 92 | 1014.3 |
| 20260906083959 | 24 | 97 | 0.0 | 3.2 | 0.00 | 0.00 | 0.00 | 92 | 1014.3 |
| 20260906083459 | 24 | 97 | 0.0 | 3.2 | 0.00 | 0.00 | 0.00 | 93 | 1014.4 |
| 20260906082959 | 24 | 0 | 0.0 | 0.0 | 0.00 | 0.00 | 0.00 | 93 | 1014.5 |
| 20260906081959 | 24 | 0 | 0.0 | 0.0 | 0.00 | 0.00 | 0.00 | 93 | 1014.6 |
| 20260906081459 | 24 | 0 | 0.0 | 0.0 | 0.00 | 0.00 | 0.00 | 93 | 1014.7 |
| 20260906080958 | 24 | 0 | 0.0 | 0.0 | 0.00 | 0.00 | 0.00 | 93 | 1014.7 |
| 20260906080459 | 24 | 0 | 0.0 | 0.0 | 0.00 | 0.00 | 0.00 | 93 | 1014.7 |
| 20260906075459 | 24 | 0 | 0.0 | 0.0 | 0.00 | 0.00 | 0.00 | 93 | 1014.8 |
| 20260906074958 | 24 | 0 | 0.0 | 0.0 | 0.00 | 0.00 | 0.00 | 93 | 1014.8 |
| 20260906074459 | 24 | 0 | 0.0 | 0.0 | 0.00 | 0.00 | 0.00 | 93 | 1014.9 |
| 20260906073959 | 24 | 0 | 0.0 | 0.0 | 0.00 | 0.00 | 0.00 | 93 | 1014.9 |
| 20260906073459 | 24 | 121 | 0.0 | 4.8 | 0.00 | 0.00 | 0.00 | 93 | 1014.8 |
| 20260906072958 | 24 | 121 | 0.0 | 4.8 | 0.00 | 0.00 | 0.00 | 93 | 1014.6 |
| 20260906071959 | 24 | 112 | 0.0 | 3.2 | 0.00 | 0.00 | 0.00 | 93 | 1014.4 |
| 20260906071458 | 24 | 114 | 0.0 | 3.2 | 0.00 | 0.00 | 0.00 | 93 | 1014.4 |
| 20260906070959 | 24 | 126 | 0.0 | 3.2 | 0.00 | 0.00 | 0.00 | 92 | 1014.3 |
| 20260906070459 | 24 | 116 | 0.0 | 4.8 | 0.00 | 0.00 | 0.00 | 92 | 1014.5 |
| 20260906065958 | 24 | 113 | 0.0 | 8.0 | 0.00 | 0.00 | 0.00 | 92 | 1014.4 |
| 20260906065459 | 24 | 115 | 1.6 | 8.0 | 0.00 | 0.00 | 0.00 | 92 | 1014.5 |
| 20260906064958 | 24 | 121 | 1.6 | 9.7 | 0.00 | 0.00 | 0.00 | 92 | 1014.5 |
| 20260906064459 | 24 | 126 | 0.0 | 9.7 | 0.00 | 0.00 | 0.00 | 92 | 1014.6 |
| 20260906063959 | 24 | 122 | 0.0 | 8.0 | 0.00 | 0.00 | 0.00 | 92 | 1014.4 |
| 20260906063458 | 25 | 112 | 0.0 | 4.8 | 0.00 | 0.00 | 0.00 | 91 | 1014.4 |
| 20260906062959 | 25 | 120 | 0.0 | 6.4 | 0.00 | 0.00 | 0.00 | 91 | 1014.6 |
| 20260906061959 | 25 | 117 | 0.0 | 1.6 | 0.00 | 0.00 | 0.00 | 91 | 1014.5 |
| 20260906061459 | 25 | 108 | 0.0 | 4.8 | 0.00 | 0.00 | 0.00 | 91 | 1014.5 |
| 20260906060958 | 25 | 118 | 0.0 | 6.4 | 0.00 | 0.00 | 0.00 | 90 | 1014.6 |
| 20260906060459 | 25 | 104 | 0.0 | 6.4 | 0.00 | 0.00 | 0.00 | 90 | 1014.6 |
| 20260906055959 | 25 | 84 | 0.0 | 4.8 | 0.00 | 0.00 | 0.00 | 90 | 1014.7 |
| 20260906055459 | 25 | 90 | 0.0 | 4.8 | 0.00 | 0.00 | 0.00 | 90 | 1014.7 |
| 20260906054958 | 25 | 106 | 0.0 | 4.8 | 0.00 | 0.00 | 0.00 | 90 | 1014.6 |
| 20260906054459 | 25 | 120 | 0.0 | 4.8 | 0.00 | 0.00 | 0.00 | 90 | 1014.7 |
| 20260906053958 | 25 | 122 | 0.0 | 3.2 | 0.00 | 0.00 | 0.00 | 90 | 1014.7 |
| 20260906053459 | 25 | 87 | 0.0 | 3.2 | 0.00 | 0.00 | 0.00 | 90 | 1014.8 |
| 20260906052959 | 25 | 76 | 0.0 | 4.8 | 0.00 | 0.00 | 0.00 | 89 | 1014.6 |
| 20260906052459 | 25 | 93 | 0.0 | 6.4 | 0.00 | 0.00 | 0.00 | 89 | 1014.7 |
| 20260906051958 | 25 | 112 | 0.0 | 6.4 | 0.00 | 0.00 | 0.00 | 89 | 1014.6 |
| 20260906051459 | 25 | 89 | 1.6 | 4.8 | 0.00 | 0.00 | 0.00 | 89 | 1014.6 |
| 20260906050958 | 25 | 76 | 1.6 | 4.8 | 0.00 | 0.00 | 0.00 | 89 | 1014.6 |
| 20260906050458 | 25 | 86 | 0.0 | 8.0 | 0.00 | 0.00 | 0.00 | 88 | 1014.8 |
| 20260906045959 | 25 | 111 | 0.0 | 8.0 | 0.00 | 0.00 | 0.00 | 88 | 1014.7 |
| 20260906044959 | 25 | 74 | 1.6 | 4.8 | 0.00 | 0.00 | 0.00 | 87 | 1014.6 |
| 20260906044459 | 26 | 72 | 1.6 | 6.4 | 0.00 | 0.00 | 0.00 | 87 | 1014.7 |
| 20260906043958 | 26 | 80 | 0.0 | 6.4 | 0.00 | 0.00 | 0.00 | 87 | 1014.7 |
| 20260906043459 | 26 | 106 | 0.0 | 4.8 | 0.00 | 0.00 | 0.00 | 87 | 1014.7 |
| 20260906042958 | 26 | 130 | 0.0 | 4.8 | 0.00 | 0.00 | 0.00 | 87 | 1014.8 |
| 20260906042459 | 26 | 115 | 0.0 | 9.7 | 0.00 | 0.00 | 0.00 | 86 | 1015.0 |
| 20260906041958 | 26 | 106 | 0.0 | 9.7 | 0.00 | 0.00 | 0.00 | 86 | 1015.0 |
| 20260906040959 | 26 | 92 | 1.6 | 9.7 | 0.00 | 0.00 | 0.00 | 86 | 1015.0 |
| 20260906035958 | 26 | 77 | 1.6 | 9.7 | 0.00 | 0.00 | 0.00 | 87 | 1014.8 |
| 20260906035459 | 26 | 81 | 1.6 | 9.7 | 0.00 | 0.00 | 0.00 | 87 | 1014.6 |
| 20260906034958 | 26 | 85 | 1.6 | 9.7 | 0.00 | 0.00 | 0.00 | 87 | 1014.6 |
| 20260906033958 | 26 | 85 | 1.6 | 6.4 | 0.00 | 0.00 | 0.00 | 86 | 1014.6 |
| 20260906033458 | 26 | 94 | 0.0 | 6.4 | 0.00 | 0.00 | 0.00 | 86 | 1014.8 |
| 20260906032958 | 26 | 84 | 1.6 | 6.4 | 0.00 | 0.00 | 0.00 | 86 | 1014.8 |
| 20260906032458 | 26 | 80 | 1.6 | 11.3 | 0.00 | 0.00 | 0.00 | 86 | 1014.7 |
| 20260906031458 | 26 | 79 | 1.6 | 9.7 | 0.00 | 0.00 | 0.00 | 86 | 1014.7 |
| 20260906030458 | 26 | 71 | 1.6 | 8.0 | 0.00 | 0.00 | 0.00 | 86 | 1014.7 |
| 20260906025958 | 26 | 71 | 1.6 | 4.8 | 0.00 | 0.00 | 0.00 | 87 | 1014.7 |
| 20260906025458 | 26 | 69 | 1.6 | 6.4 | 0.00 | 0.00 | 0.00 | 87 | 1014.8 |
| 20260906024458 | 26 | 72 | 1.6 | 6.4 | 0.00 | 0.00 | 0.00 | 87 | 1014.8 |
| 20260906023958 | 26 | 70 | 1.6 | 6.4 | 0.00 | 0.00 | 0.00 | 87 | 1014.8 |
| 20260906023458 | 26 | 70 | 3.2 | 6.4 | 0.00 | 0.00 | 0.00 | 87 | 1014.8 |
| 20260906022458 | 26 | 70 | 4.8 | 9.7 | 0.00 | 0.00 | 0.00 | 86 | 1014.4 |
| 20260906021958 | 26 | 70 | 3.2 | 9.7 | 0.00 | 0.00 | 0.00 | 85 | 1014.3 |
| 20260906021458 | 26 | 71 | 3.2 | 8.0 | 0.00 | 0.00 | 0.00 | 85 | 1014.3 |
| 20260906020959 | 27 | 72 | 1.6 | 6.4 | 0.00 | 0.00 | 0.00 | 84 | 1014.2 |
| 20260906020458 | 27 | 73 | 1.6 | 4.8 | 0.00 | 0.00 | 0.00 | 84 | 1014.1 |
| 20260906015958 | 27 | 69 | 0.0 | 4.8 | 0.00 | 0.00 | 0.00 | 84 | 1013.9 |
| 20260906015458 | 27 | 70 | 0.0 | 3.2 | 0.00 | 0.00 | 0.00 | 84 | 1013.7 |
| 20260906014958 | 27 | 71 | 1.6 | 4.8 | 0.00 | 0.00 | 0.00 | 83 | 1013.6 |
| 20260906014458 | 27 | 68 | 0.0 | 4.8 | 0.00 | 0.00 | 0.00 | 83 | 1013.4 |
| 20260906013958 | 27 | 54 | 0.0 | 1.6 | 0.00 | 0.00 | 0.00 | 82 | 1013.1 |
| 20260906012458 | 28 | 70 | 0.0 | 3.2 | 0.00 | 0.00 | 0.00 | 80 | 1012.8 |
| 20260906011958 | 28 | 78 | 0.0 | 3.2 | 0.00 | 0.00 | 0.00 | 79 | 1012.7 |
| 20260906011458 | 28 | 90 | 0.0 | 1.6 | 0.00 | 0.00 | 0.00 | 79 | 1012.8 |
| 20260906010958 | 28 | 118 | 0.0 | 1.6 | 0.00 | 0.00 | 0.00 | 79 | 1012.7 |
| 20260906010458 | 28 | 120 | 0.0 | 1.6 | 0.00 | 0.00 | 0.00 | 78 | 1012.7 |
| 20260906005958 | 28 | 0 | 0.0 | 0.0 | 0.00 | 0.00 | 0.00 | 78 | 1012.7 |
| 20260906005458 | 28 | 118 | 0.0 | 1.6 | 0.00 | 0.00 | 0.00 | 77 | 1012.7 |
| 20260906004959 | 29 | 118 | 0.0 | 1.6 | 0.00 | 0.00 | 0.00 | 76 | 1012.8 |
| 20260906004458 | 29 | 136 | 0.0 | 1.6 | 0.00 | 0.00 | 0.00 | 76 | 1012.8 |
| 20260906003958 | 30 | 218 | 0.0 | 3.2 | 0.00 | 0.00 | 0.00 | 75 | 1012.8 |
| 20260906003459 | 30 | 220 | 0.0 | 3.2 | 0.00 | 0.00 | 0.00 | 74 | 1013.0 |
| 20260906002958 | 30 | 198 | 0.0 | 1.6 | 0.00 | 0.00 | 0.00 | 74 | 1013.0 |
| 20260906002458 | 30 | 209 | 0.0 | 3.2 | 0.00 | 0.00 | 0.00 | 73 | 1013.1 |
| 20260906001958 | 30 | 203 | 0.0 | 3.2 | 0.00 | 0.00 | 0.00 | 73 | 1013.2 |
| 20260906001458 | 30 | 183 | 0.0 | 6.4 | 0.00 | 0.00 | 0.00 | 72 | 1013.2 |
| 20260906000957 | 30 | 187 | 0.0 | 6.4 | 0.00 | 0.00 | 0.00 | 71 | 1013.1 |
| 20260906000458 | 30 | 199 | 0.0 | 4.8 | 0.00 | 0.00 | 0.00 | 71 | 1013.1 |
| 20260905235958 | 31 | 219 | 0.0 | 3.2 | 0.00 | 0.00 | 0.00 | 70 | 1013.1 |
| 20260905235458 | 31 | 217 | 1.6 | 9.7 | 0.00 | 0.00 | 0.00 | 70 | 1013.0 |
| 20260905234958 | 31 | 204 | 1.6 | 9.7 | 0.00 | 0.00 | 0.00 | 69 | 1012.9 |
| 20260905234458 | 31 | 197 | 1.6 | 12.9 | 0.00 | 0.00 | 0.00 | 69 | 1012.8 |
| 20260905233958 | 31 | 200 | 1.6 | 12.9 | 0.00 | 0.00 | 0.00 | 68 | 1012.7 |
| 20260905233458 | 31 | 177 | 1.6 | 11.3 | 0.00 | 0.00 | 0.00 | 68 | 1012.7 |
| 20260905232957 | 31 | 191 | 3.2 | 17.7 | 0.00 | 0.00 | 0.00 | 67 | 1012.5 |
| 20260905232458 | 31 | 196 | 4.8 | 17.7 | 0.00 | 0.00 | 0.00 | 66 | 1012.4 |
| 20260905231958 | 31 | 200 | 3.2 | 11.3 | 0.00 | 0.00 | 0.00 | 66 | 1012.5 |
| 20260905231458 | 32 | 214 | 4.8 | 14.5 | 0.00 | 0.00 | 0.00 | 66 | 1012.5 |
| 20260905230457 | 32 | 209 | 3.2 | 11.3 | 0.00 | 0.00 | 0.00 | 65 | 1012.4 |
| 20260905225457 | 32 | 196 | 3.2 | 16.1 | 0.00 | 0.00 | 0.00 | 64 | 1012.4 |
| 20260905224958 | 32 | 172 | 3.2 | 9.7 | 0.00 | 0.00 | 0.00 | 64 | 1012.5 |
| 20260905224458 | 32 | 213 | 3.2 | 12.9 | 0.00 | 0.00 | 0.00 | 64 | 1012.5 |
| 20260905223959 | 32 | 212 | 4.8 | 17.7 | 0.00 | 0.00 | 0.00 | 63 | 1012.5 |
| 20260905223458 | 32 | 198 | 4.8 | 17.7 | 0.00 | 0.00 | 0.00 | 62 | 1012.4 |
| 20260905222958 | 32 | 195 | 6.4 | 19.3 | 0.00 | 0.00 | 0.00 | 61 | 1012.5 |
| 20260905222457 | 32 | 210 | 4.8 | 19.3 | 0.00 | 0.00 | 0.00 | 61 | 1012.4 |
| 20260905221957 | 32 | 198 | 3.2 | 12.9 | 0.00 | 0.00 | 0.00 | 60 | 1012.4 |
| 20260905221457 | 32 | 183 | 3.2 | 11.3 | 0.00 | 0.00 | 0.00 | 60 | 1012.5 |
| 20260905220958 | 32 | 199 | 3.2 | 14.5 | 0.00 | 0.00 | 0.00 | 60 | 1012.5 |
| 20260905220458 | 32 | 204 | 4.8 | 17.7 | 0.00 | 0.00 | 0.00 | 59 | 1012.4 |
| 20260905215958 | 32 | 188 | 4.8 | 17.7 | 0.00 | 0.00 | 0.00 | 58 | 1012.4 |
| 20260905215458 | 32 | 164 | 4.8 | 16.1 | 0.00 | 0.00 | 0.00 | 58 | 1012.4 |
| 20260905214457 | 32 | 186 | 4.8 | 17.7 | 0.00 | 0.00 | 0.00 | 58 | 1012.3 |
| 20260905213958 | 32 | 142 | 3.2 | 14.5 | 0.00 | 0.00 | 0.00 | 59 | 1012.3 |
| 20260905213457 | 32 | 172 | 3.2 | 16.1 | 0.00 | 0.00 | 0.00 | 58 | 1012.5 |
| 20260905212957 | 32 | 181 | 4.8 | 16.1 | 0.00 | 0.00 | 0.00 | 58 | 1012.5 |
| 20260905212457 | 32 | 169 | 3.2 | 14.5 | 0.00 | 0.00 | 0.00 | 57 | 1012.5 |
| 20260905211958 | 32 | 183 | 3.2 | 14.5 | 0.00 | 0.00 | 0.00 | 57 | 1012.5 |
| 20260905211457 | 32 | 169 | 3.2 | 14.5 | 0.00 | 0.00 | 0.00 | 59 | 1012.3 |
| 20260905210957 | 32 | 156 | 4.8 | 14.5 | 0.00 | 0.00 | 0.00 | 58 | 1012.3 |
| 20260905210457 | 32 | 174 | 3.2 | 22.5 | 0.00 | 0.00 | 0.00 | 58 | 1012.2 |
| 20260905205958 | 32 | 167 | 3.2 | 22.5 | 0.00 | 0.00 | 0.00 | 58 | 1012.3 |
| 20260905205458 | 32 | 144 | 3.2 | 11.3 | 0.00 | 0.00 | 0.00 | 58 | 1012.5 |
| 20260905204958 | 32 | 140 | 3.2 | 17.7 | 0.00 | 0.00 | 0.00 | 59 | 1012.7 |
| 20260905204458 | 32 | 126 | 3.2 | 17.7 | 0.00 | 0.00 | 0.00 | 60 | 1012.8 |
| 20260905203958 | 32 | 123 | 3.2 | 12.9 | 0.00 | 0.00 | 0.00 | 60 | 1012.8 |
| 20260905203458 | 32 | 126 | 3.2 | 12.9 | 0.00 | 0.00 | 0.00 | 61 | 1012.8 |
| 20260905202457 | 31 | 162 | 3.2 | 17.7 | 0.00 | 0.00 | 0.00 | 61 | 1012.7 |
| 20260905201958 | 31 | 148 | 4.8 | 17.7 | 0.00 | 0.00 | 0.00 | 63 | 1012.6 |
| 20260905201458 | 30 | 181 | 6.4 | 25.7 | 0.00 | 0.00 | 0.00 | 63 | 1012.7 |
| 20260905200958 | 30 | 195 | 4.8 | 25.7 | 0.00 | 0.00 | 0.00 | 63 | 1012.7 |
| 20260905200457 | 30 | 177 | 3.2 | 14.5 | 0.00 | 0.00 | 0.00 | 64 | 1012.6 |
| 20260905195958 | 30 | 148 | 3.2 | 16.1 | 0.00 | 0.00 | 0.00 | 64 | 1012.7 |